createdAt,value
2018-09-19T00:00:49.805Z,18.20
2018-09-19T00:03:23.878Z,18.10
2018-09-19T00:05:58.033Z,18.00
2018-09-19T00:08:31.875Z,17.90
2018-09-19T00:11:06.273Z,17.80
2018-09-19T00:13:40.684Z,17.80
2018-09-19T00:16:14.539Z,17.70
2018-09-19T00:18:48.464Z,17.70
2018-09-19T00:21:22.406Z,17.70
2018-09-19T00:23:56.366Z,17.60
2018-09-19T00:26:30.335Z,17.70
2018-09-19T00:29:04.295Z,17.60
2018-09-19T00:31:38.535Z,17.60
2018-09-19T00:34:12.512Z,17.60
2018-09-19T00:36:46.711Z,17.60
2018-09-19T00:39:20.714Z,17.60
2018-09-19T00:41:54.758Z,17.60
2018-09-19T00:44:28.663Z,17.50
2018-09-19T00:47:02.689Z,17.50
2018-09-19T00:49:36.467Z,17.20
2018-09-19T00:52:10.365Z,17.20
2018-09-19T00:54:51.221Z,17.20
2018-09-19T00:57:25.895Z,17.10
2018-09-19T00:59:59.929Z,17.10
2018-09-19T01:02:34.160Z,17.10
2018-09-19T01:05:08.148Z,17.10
2018-09-19T01:07:43.577Z,17.00
2018-09-19T01:10:18.482Z,17.00
2018-09-19T01:12:52.376Z,16.90
2018-09-19T01:15:26.332Z,16.80
2018-09-19T01:18:00.347Z,16.70
2018-09-19T01:20:34.943Z,16.70
2018-09-19T01:23:09.070Z,16.70
2018-09-19T01:25:42.858Z,16.60
2018-09-19T01:28:16.748Z,16.60
2018-09-19T01:30:50.800Z,16.50
2018-09-19T01:33:24.740Z,16.50
2018-09-19T01:35:58.907Z,16.40
2018-09-19T01:38:32.843Z,16.40
2018-09-19T01:41:06.986Z,16.30
2018-09-19T01:43:40.742Z,16.30
2018-09-19T01:46:14.592Z,16.30
2018-09-19T01:48:49.196Z,16.20
2018-09-19T01:51:23.407Z,16.40
2018-09-19T01:53:57.344Z,16.20
2018-09-19T01:56:32.128Z,16.10
2018-09-19T01:59:06.243Z,16.10
2018-09-19T02:01:40.017Z,16.00
2018-09-19T02:04:14.977Z,16.00
2018-09-19T02:06:49.207Z,16.10
2018-09-19T02:09:23.305Z,16.10
2018-09-19T02:11:57.380Z,16.10
2018-09-19T02:14:31.255Z,16.00
2018-09-19T02:17:05.494Z,16.00
2018-09-19T02:19:39.507Z,15.90
2018-09-19T02:22:13.433Z,15.90
2018-09-19T02:24:47.677Z,15.80
2018-09-19T02:27:21.717Z,15.70
2018-09-19T02:29:55.464Z,15.70
2018-09-19T02:32:29.402Z,15.70
2018-09-19T02:35:03.236Z,15.80
2018-09-19T02:37:37.189Z,15.80
2018-09-19T02:40:11.114Z,15.80
2018-09-19T02:42:45.662Z,15.80
2018-09-19T02:45:19.644Z,15.80
2018-09-19T02:47:53.798Z,15.60
2018-09-19T02:50:27.795Z,15.60
2018-09-19T02:53:02.047Z,15.60
2018-09-19T02:55:36.703Z,15.50
2018-09-19T02:58:10.988Z,15.50
2018-09-19T03:00:45.856Z,15.50
2018-09-19T03:03:20.497Z,15.50
2018-09-19T03:05:55.139Z,15.40
2018-09-19T03:08:29.643Z,15.40
2018-09-19T03:11:03.718Z,15.40
2018-09-19T03:13:37.739Z,15.40
2018-09-19T03:16:11.608Z,15.40
2018-09-19T03:18:45.637Z,15.50
2018-09-19T03:21:19.394Z,15.50
2018-09-19T03:23:53.809Z,15.50
2018-09-19T03:26:27.854Z,15.40
2018-09-19T03:29:01.740Z,15.40
2018-09-19T03:31:35.717Z,15.30
2018-09-19T03:34:09.505Z,15.30
2018-09-19T03:36:43.340Z,15.30
2018-09-19T03:39:17.472Z,15.30
2018-09-19T03:41:51.903Z,15.30
2018-09-19T03:44:25.868Z,15.30
2018-09-19T03:47:00.062Z,15.40
2018-09-19T03:49:33.945Z,15.40
2018-09-19T03:52:07.941Z,15.40
2018-09-19T03:54:42.015Z,15.50
2018-09-19T03:57:15.853Z,15.40
2018-09-19T03:59:50.032Z,15.20
2018-09-19T04:02:24.080Z,15.20
2018-09-19T04:04:59.327Z,15.10
2018-09-19T04:07:34.501Z,15.10
2018-09-19T04:10:08.310Z,15.10
2018-09-19T04:12:43.013Z,15.10
2018-09-19T04:15:17.063Z,15.10
2018-09-19T04:17:51.608Z,15.10
2018-09-19T04:20:25.577Z,15.00
2018-09-19T04:22:59.816Z,15.00
2018-09-19T04:25:34.205Z,14.90
2018-09-19T04:28:07.963Z,14.90
2018-09-19T04:30:42.489Z,14.90
2018-09-19T04:33:16.429Z,14.90
2018-09-19T04:35:50.831Z,14.90
2018-09-19T04:38:25.009Z,15.00
2018-09-19T04:40:59.462Z,15.00
2018-09-19T04:43:33.858Z,14.90
2018-09-19T04:46:07.719Z,14.90
2018-09-19T04:48:42.649Z,14.80
2018-09-19T04:51:16.834Z,14.80
2018-09-19T04:53:51.292Z,14.80
2018-09-19T04:56:25.187Z,14.80
2018-09-19T04:59:00.025Z,14.70
2018-09-19T05:01:34.103Z,14.70
2018-09-19T05:04:08.162Z,14.70
2018-09-19T05:06:42.753Z,14.70
2018-09-19T05:09:16.786Z,14.70
2018-09-19T05:11:50.598Z,14.70
2018-09-19T05:14:24.631Z,14.60
2018-09-19T05:16:59.020Z,14.60
2018-09-19T05:19:33.313Z,14.60
2018-09-19T05:22:07.244Z,14.60
2018-09-19T05:24:41.352Z,14.50
2018-09-19T05:27:15.602Z,14.60
2018-09-19T05:29:49.557Z,14.60
2018-09-19T05:32:24.343Z,14.70
2018-09-19T05:34:58.732Z,14.80
2018-09-19T05:37:32.900Z,15.00
2018-09-19T05:40:07.162Z,15.10
2018-09-19T05:42:40.994Z,15.20
2018-09-19T05:45:14.779Z,15.20
2018-09-19T05:47:48.978Z,15.20
2018-09-19T05:50:22.990Z,15.20
2018-09-19T05:52:57.551Z,15.10
2018-09-19T05:55:31.498Z,15.20
2018-09-19T05:58:06.054Z,15.20
2018-09-19T06:00:40.168Z,15.20
2018-09-19T06:03:15.083Z,15.30
2018-09-19T06:05:49.163Z,15.40
2018-09-19T06:08:23.088Z,15.40
2018-09-19T06:10:57.362Z,15.50
2018-09-19T06:13:31.433Z,15.50
2018-09-19T06:16:05.599Z,15.60
2018-09-19T06:18:39.619Z,15.80
2018-09-19T06:21:13.644Z,15.90
2018-09-19T06:23:47.459Z,15.90
2018-09-19T06:26:22.114Z,16.00
2018-09-19T06:28:56.332Z,16.10
2018-09-19T06:31:30.552Z,16.10
2018-09-19T06:34:04.814Z,16.20
2018-09-19T06:36:39.693Z,16.30
2018-09-19T06:39:13.702Z,16.40
2018-09-19T06:41:47.678Z,16.50
2018-09-19T06:44:22.508Z,16.60
2018-09-19T06:46:56.952Z,16.70
2018-09-19T06:49:30.780Z,16.80
2018-09-19T06:52:05.317Z,17.00
2018-09-19T06:54:39.263Z,17.10
2018-09-19T06:57:13.125Z,17.20
2018-09-19T06:59:48.159Z,17.40
2018-09-19T07:02:22.114Z,17.40
2018-09-19T07:04:56.142Z,17.50
2018-09-19T07:07:30.439Z,17.50
2018-09-19T07:10:04.579Z,17.60
2018-09-19T07:12:38.709Z,17.70
2018-09-19T07:15:13.043Z,17.80
2018-09-19T07:17:46.989Z,17.90
2018-09-19T07:20:21.668Z,18.00
2018-09-19T07:22:56.354Z,18.10
2018-09-19T07:25:30.354Z,18.20
2018-09-19T07:28:04.604Z,18.30
2018-09-19T07:30:45.517Z,18.50
2018-09-19T07:33:19.498Z,18.60
2018-09-19T07:35:53.379Z,18.80
2018-09-19T07:38:27.539Z,18.90
2018-09-19T07:41:01.520Z,19.10
2018-09-19T07:43:35.668Z,19.30
2018-09-19T07:46:10.167Z,19.40
2018-09-19T07:48:44.552Z,19.70
2018-09-19T07:51:18.562Z,19.80
2018-09-19T07:53:52.702Z,20.00
2018-09-19T07:56:26.828Z,20.30
2018-09-19T07:59:01.108Z,20.50
2018-09-19T08:01:35.717Z,20.70
2018-09-19T08:04:09.689Z,20.90
2018-09-19T08:06:43.979Z,21.00
2018-09-19T08:09:18.119Z,21.10
2018-09-19T08:11:51.980Z,21.20
2018-09-19T08:14:26.163Z,21.20
2018-09-19T08:17:00.130Z,21.30
2018-09-19T08:19:34.034Z,21.40
2018-09-19T08:22:09.004Z,21.50
2018-09-19T08:24:42.841Z,21.70
2018-09-19T08:27:16.658Z,21.80
2018-09-19T08:29:50.805Z,21.90
2018-09-19T08:32:25.305Z,22.00
2018-09-19T08:34:59.288Z,22.20
2018-09-19T08:37:34.160Z,22.30
2018-09-19T08:40:08.298Z,22.50
2018-09-19T08:42:42.360Z,22.60
2018-09-19T08:45:16.579Z,22.70
2018-09-19T08:47:50.570Z,22.70
2018-09-19T08:50:24.532Z,22.80
2018-09-19T08:52:58.789Z,22.90
2018-09-19T08:55:32.945Z,23.00
2018-09-19T08:58:07.103Z,23.10
2018-09-19T09:00:41.306Z,23.20
2018-09-19T09:03:15.976Z,23.30
2018-09-19T09:05:49.884Z,23.40
2018-09-19T09:08:23.837Z,23.60
2018-09-19T09:10:58.263Z,23.60
2018-09-19T09:13:32.874Z,23.70
2018-09-19T09:16:06.980Z,23.90
2018-09-19T09:18:40.772Z,24.00
2018-09-19T09:21:14.692Z,24.10
2018-09-19T09:23:48.826Z,24.20
2018-09-19T09:26:23.107Z,24.20
2018-09-19T09:28:57.294Z,24.30
2018-09-19T09:31:31.227Z,24.40
2018-09-19T09:34:05.206Z,24.50
2018-09-19T09:36:39.499Z,24.50
2018-09-19T09:39:14.113Z,24.60
2018-09-19T09:41:48.764Z,24.60
2018-09-19T09:44:22.780Z,24.80
2018-09-19T09:46:56.931Z,24.80
2018-09-19T09:49:30.890Z,24.80
2018-09-19T09:52:05.292Z,24.90
2018-09-19T09:54:39.299Z,24.90
2018-09-19T09:57:13.043Z,24.90
2018-09-19T09:59:46.982Z,25.00
2018-09-19T10:02:20.904Z,25.00
2018-09-19T10:04:54.968Z,25.10
2018-09-19T10:07:29.407Z,25.20
2018-09-19T10:10:03.129Z,25.20
2018-09-19T10:12:37.308Z,25.30
2018-09-19T10:15:11.163Z,25.40
2018-09-19T10:17:45.468Z,25.40
2018-09-19T10:20:20.451Z,25.40
2018-09-19T10:22:55.387Z,25.30
2018-09-19T10:25:29.790Z,25.30
2018-09-19T10:28:04.157Z,25.30
2018-09-19T10:30:38.379Z,25.20
2018-09-19T10:33:12.260Z,25.20
2018-09-19T10:35:46.260Z,25.20
2018-09-19T10:38:20.384Z,25.30
2018-09-19T10:40:54.997Z,25.30
2018-09-19T10:43:29.198Z,25.30
2018-09-19T10:46:03.155Z,25.40
2018-09-19T10:48:37.864Z,25.50
2018-09-19T10:51:12.370Z,25.50
2018-09-19T10:53:46.574Z,25.50
2018-09-19T10:56:20.917Z,25.50
2018-09-19T10:59:01.601Z,25.50
2018-09-19T11:01:35.494Z,25.70
2018-09-19T11:04:09.644Z,25.80
2018-09-19T11:06:43.700Z,25.90
2018-09-19T11:09:17.941Z,25.90
2018-09-19T11:11:52.329Z,25.90
2018-09-19T11:14:26.328Z,26.00
2018-09-19T11:17:00.461Z,26.10
2018-09-19T11:19:34.369Z,26.20
2018-09-19T11:22:08.326Z,26.30
2018-09-19T11:24:42.506Z,26.20
2018-09-19T11:27:16.595Z,26.30
2018-09-19T11:29:50.836Z,26.40
2018-09-19T11:32:24.848Z,26.40
2018-09-19T11:34:59.143Z,26.40
2018-09-19T11:37:32.976Z,26.50
2018-09-19T11:40:07.099Z,26.60
2018-09-19T11:42:41.103Z,26.70
2018-09-19T11:45:15.468Z,26.70
2018-09-19T11:47:49.814Z,26.60
2018-09-19T11:50:23.933Z,26.50
2018-09-19T11:52:58.020Z,26.60
2018-09-19T11:55:32.064Z,26.70
2018-09-19T11:58:06.194Z,26.80
2018-09-19T12:00:40.123Z,26.90
2018-09-19T12:03:14.365Z,27.10
2018-09-19T12:05:48.357Z,27.20
2018-09-19T12:08:22.364Z,27.20
2018-09-19T12:10:56.638Z,27.30
2018-09-19T12:13:30.647Z,27.50
2018-09-19T12:16:04.728Z,27.60
2018-09-19T12:18:38.901Z,27.70
2018-09-19T12:21:12.859Z,27.70
2018-09-19T12:23:46.674Z,27.70
2018-09-19T12:26:20.910Z,27.90
2018-09-19T12:28:54.908Z,27.90
2018-09-19T12:31:29.212Z,27.80
2018-09-19T12:34:03.159Z,27.70
2018-09-19T12:36:37.322Z,27.60
2018-09-19T12:39:11.792Z,27.60
2018-09-19T12:41:45.647Z,27.50
2018-09-19T12:44:19.792Z,27.40
2018-09-19T12:46:54.004Z,27.20
2018-09-19T12:49:28.003Z,27.20
2018-09-19T12:52:02.241Z,27.20
2018-09-19T12:54:36.404Z,27.20
2018-09-19T12:57:10.645Z,27.30
2018-09-19T12:59:44.587Z,27.40
2018-09-19T13:02:18.657Z,27.40
2018-09-19T13:04:53.102Z,27.50
2018-09-19T13:07:26.939Z,27.60
2018-09-19T13:10:02.513Z,27.60
2018-09-19T13:12:36.722Z,27.60
2018-09-19T13:15:10.687Z,27.50
2018-09-19T13:17:45.557Z,27.50
2018-09-19T13:20:19.889Z,27.60
2018-09-19T13:22:54.992Z,27.90
2018-09-19T13:25:30.258Z,28.40
2018-09-19T13:28:04.251Z,28.50
2018-09-19T13:30:38.222Z,28.40
2018-09-19T13:33:12.489Z,28.30
2018-09-19T13:35:53.259Z,28.20
2018-09-19T13:38:28.610Z,28.10
2018-09-19T13:41:03.514Z,27.90
2018-09-19T13:43:38.514Z,27.80
2018-09-19T13:46:12.691Z,27.70
2018-09-19T13:48:55.179Z,27.70
2018-09-19T13:51:29.626Z,28.10
2018-09-19T13:54:03.973Z,28.70
2018-09-19T13:56:38.394Z,29.20
2018-09-19T13:59:12.870Z,29.60
2018-09-19T14:01:47.215Z,29.80
2018-09-19T14:04:21.570Z,30.20
2018-09-19T14:06:55.623Z,30.40
2018-09-19T14:09:29.738Z,30.50
2018-09-19T14:12:04.362Z,30.50
2018-09-19T14:14:38.519Z,30.40
2018-09-19T14:17:12.662Z,30.60
2018-09-19T14:19:46.829Z,30.90
2018-09-19T14:22:21.888Z,30.90
2018-09-19T14:24:56.937Z,31.00
2018-09-19T14:27:31.169Z,30.90
2018-09-19T14:30:06.169Z,30.90
2018-09-19T14:32:40.757Z,30.90
2018-09-19T14:35:15.461Z,31.00
2018-09-19T14:37:50.134Z,30.90
2018-09-19T14:40:24.798Z,30.80
2018-09-19T14:43:00.230Z,30.70
2018-09-19T14:45:34.461Z,30.70
2018-09-19T14:48:08.978Z,30.80
2018-09-19T14:50:43.275Z,30.70
2018-09-19T14:53:17.711Z,30.60
2018-09-19T14:55:51.727Z,30.50
2018-09-19T14:58:26.608Z,30.50
2018-09-19T15:01:00.982Z,30.30
2018-09-19T15:03:35.478Z,30.20
2018-09-19T15:06:10.168Z,29.90
2018-09-19T15:08:44.281Z,29.80
2018-09-19T15:11:18.358Z,29.60
2018-09-19T15:13:53.341Z,29.30
2018-09-19T15:16:27.491Z,29.10
2018-09-19T15:19:02.655Z,29.10
2018-09-19T15:21:36.793Z,29.20
2018-09-19T15:24:10.898Z,29.30
2018-09-19T15:26:45.804Z,29.30
2018-09-19T15:29:19.791Z,29.30
2018-09-19T15:31:53.805Z,29.50
2018-09-19T15:34:28.538Z,29.50
2018-09-19T15:37:03.358Z,29.60
2018-09-19T15:39:38.767Z,29.70
2018-09-19T15:42:12.625Z,29.70
2018-09-19T15:44:46.710Z,29.70
2018-09-19T15:47:20.927Z,29.70
2018-09-19T15:49:55.358Z,29.50
2018-09-19T15:52:29.370Z,29.50
2018-09-19T15:55:03.512Z,29.60
2018-09-19T15:57:37.926Z,29.60
2018-09-19T16:00:12.714Z,29.50
2018-09-19T16:02:46.983Z,29.20
2018-09-19T16:05:21.181Z,29.00
2018-09-19T16:07:55.989Z,28.80
2018-09-19T16:10:30.400Z,28.80
2018-09-19T16:13:04.639Z,28.90
2018-09-19T16:15:38.991Z,29.10
2018-09-19T16:18:13.457Z,29.20
2018-09-19T16:20:47.883Z,29.50
2018-09-19T16:23:22.951Z,29.80
2018-09-19T16:25:57.554Z,29.80
2018-09-19T16:28:32.029Z,29.70
2018-09-19T16:31:07.025Z,29.20
2018-09-19T16:33:41.526Z,29.00
2018-09-19T16:36:16.567Z,28.70
2018-09-19T16:38:50.830Z,28.50
2018-09-19T16:41:25.399Z,28.20
2018-09-19T16:44:00.619Z,28.10
2018-09-19T16:46:35.590Z,27.90
2018-09-19T16:49:10.924Z,27.70
2018-09-19T16:51:45.877Z,27.60
2018-09-19T16:54:19.850Z,27.40
2018-09-19T16:56:54.204Z,27.30
2018-09-19T16:59:28.873Z,27.10
2018-09-19T17:02:03.113Z,27.00
2018-09-19T17:04:37.464Z,26.90
2018-09-19T17:07:12.414Z,26.80
2018-09-19T17:09:47.669Z,26.70
2018-09-19T17:12:22.170Z,26.70
2018-09-19T17:14:56.540Z,26.70
2018-09-19T17:17:35.120Z,26.60
2018-09-19T17:20:10.645Z,26.60
2018-09-19T17:22:45.018Z,26.40
2018-09-19T17:25:19.494Z,26.40
2018-09-19T17:27:53.570Z,26.30
2018-09-19T17:30:27.699Z,26.20
2018-09-19T17:33:01.929Z,26.00
2018-09-19T17:35:36.190Z,25.90
2018-09-19T17:38:10.480Z,25.70
2018-09-19T17:40:44.711Z,25.50
2018-09-19T17:43:18.976Z,25.20
2018-09-19T17:45:53.198Z,25.10
2018-09-19T17:48:27.521Z,24.90
2018-09-19T17:51:01.805Z,24.80
2018-09-19T17:53:35.860Z,24.60
2018-09-19T17:56:10.692Z,24.50
2018-09-19T17:58:45.791Z,24.30
2018-09-19T18:01:20.258Z,24.20
2018-09-19T18:03:54.438Z,24.10
2018-09-19T18:06:28.888Z,23.90
2018-09-19T18:09:03.903Z,23.80
2018-09-19T18:11:38.361Z,23.60
2018-09-19T18:14:13.034Z,23.40
2018-09-19T18:16:47.226Z,23.20
2018-09-19T18:19:22.411Z,23.10
2018-09-19T18:21:56.716Z,23.00
2018-09-19T18:24:31.078Z,22.90
2018-09-19T18:27:05.610Z,22.90
2018-09-19T18:29:40.037Z,22.80
2018-09-19T18:32:15.118Z,22.80
2018-09-19T18:34:50.283Z,22.70
2018-09-19T18:37:25.294Z,22.70
2018-09-19T18:40:00.523Z,22.60
2018-09-19T18:42:34.896Z,22.50
2018-09-19T18:45:09.044Z,22.40
2018-09-19T18:47:43.297Z,22.30
2018-09-19T18:50:17.448Z,22.20
2018-09-19T18:52:51.721Z,22.20
2018-09-19T18:55:26.254Z,22.10
2018-09-19T18:58:00.438Z,22.00
2018-09-19T19:00:34.784Z,22.00
2018-09-19T19:03:09.268Z,22.00
2018-09-19T19:05:44.189Z,21.90
2018-09-19T19:08:18.346Z,21.80
2018-09-19T19:10:53.652Z,21.80
2018-09-19T19:13:28.456Z,21.80
2018-09-19T19:16:02.960Z,21.70
2018-09-19T19:18:37.380Z,21.60
2018-09-19T19:21:11.379Z,21.60
2018-09-19T19:23:45.583Z,21.50
2018-09-19T19:26:20.645Z,21.50
2018-09-19T19:28:56.523Z,21.50
2018-09-19T19:31:30.658Z,21.50
2018-09-19T19:34:05.545Z,21.40
2018-09-19T19:36:40.580Z,21.40
2018-09-19T19:39:16.066Z,21.40
2018-09-19T19:41:50.525Z,21.30
2018-09-19T19:44:24.666Z,21.30
2018-09-19T19:46:59.627Z,21.20
2018-09-19T19:49:33.778Z,21.10
2018-09-19T19:52:07.915Z,21.00
2018-09-19T19:54:41.824Z,21.00
2018-09-19T19:57:16.645Z,21.00
2018-09-19T19:59:51.475Z,21.00
2018-09-19T20:02:26.084Z,21.00
2018-09-19T20:05:01.120Z,21.00
2018-09-19T20:07:34.984Z,21.00
2018-09-19T20:10:09.140Z,21.00
2018-09-19T20:12:43.270Z,21.10
2018-09-19T20:15:17.150Z,21.10
2018-09-19T20:17:51.854Z,21.10
2018-09-19T20:20:25.777Z,21.10
2018-09-19T20:22:59.934Z,21.10
2018-09-19T20:25:34.671Z,21.10
2018-09-19T20:28:08.821Z,21.00
2018-09-19T20:30:43.185Z,20.90
2018-09-19T20:33:17.248Z,20.90
2018-09-19T20:38:32.328Z,20.80
2018-09-19T20:41:06.357Z,20.80
2018-09-19T20:43:40.328Z,20.80
2018-09-19T20:46:14.240Z,20.80
2018-09-19T20:48:49.071Z,20.80
2018-09-19T20:51:23.303Z,20.80
2018-09-19T20:53:57.381Z,20.70
2018-09-19T20:56:31.629Z,20.70
2018-09-19T20:59:06.003Z,20.70
2018-09-19T21:01:41.039Z,20.60
2018-09-19T21:04:15.407Z,20.60
2018-09-19T21:06:49.613Z,20.50
2018-09-19T21:09:25.292Z,20.50
2018-09-19T21:11:59.861Z,20.50
2018-09-19T21:14:34.426Z,20.40
2018-09-19T21:17:09.056Z,20.30
2018-09-19T21:19:42.975Z,20.30
2018-09-19T21:22:17.992Z,20.20
2018-09-19T21:24:52.068Z,20.10
2018-09-19T21:27:26.405Z,20.10
2018-09-19T21:30:00.610Z,20.00
2018-09-19T21:32:34.538Z,19.90
2018-09-19T21:35:08.664Z,19.90
2018-09-19T21:37:43.338Z,19.80
2018-09-19T21:40:17.358Z,19.70
2018-09-19T21:42:51.454Z,19.70
2018-09-19T21:45:25.607Z,19.60
2018-09-19T21:47:59.928Z,19.50
2018-09-19T21:50:34.109Z,19.50
2018-09-19T21:53:08.274Z,19.50
2018-09-19T21:55:43.219Z,19.40
2018-09-19T21:58:17.444Z,19.40
2018-09-19T22:00:57.168Z,19.30
2018-09-19T22:03:39.586Z,19.20
2018-09-19T22:06:14.040Z,19.20
2018-09-19T22:08:48.255Z,19.10
2018-09-19T22:11:22.218Z,19.10
2018-09-19T22:13:56.540Z,19.00
2018-09-19T22:16:30.588Z,19.00
2018-09-19T22:19:04.916Z,19.00
2018-09-19T22:21:39.297Z,18.90
2018-09-19T22:24:13.428Z,18.90
2018-09-19T22:26:47.519Z,18.80
2018-09-19T22:29:22.493Z,18.80
2018-09-19T22:32:00.185Z,18.80
2018-09-19T22:34:35.082Z,18.70
2018-09-19T22:37:09.119Z,18.70
2018-09-19T22:39:43.533Z,18.70
2018-09-19T22:42:18.301Z,18.70
2018-09-19T22:44:52.407Z,18.70
2018-09-19T22:47:26.742Z,18.70
2018-09-19T22:50:00.888Z,18.60
2018-09-19T22:52:35.488Z,18.50
2018-09-19T22:55:09.804Z,18.50
2018-09-19T22:57:44.341Z,18.50
2018-09-19T23:00:18.242Z,18.50
2018-09-19T23:02:52.357Z,18.50
2018-09-19T23:05:26.473Z,18.50
2018-09-19T23:08:00.471Z,18.40
2018-09-19T23:10:34.959Z,18.40
2018-09-19T23:13:09.383Z,18.30
2018-09-19T23:15:43.717Z,18.30
2018-09-19T23:18:18.572Z,18.30
2018-09-19T23:20:52.922Z,18.20
2018-09-19T23:23:27.722Z,18.20
2018-09-19T23:26:01.867Z,18.10
2018-09-19T23:28:35.949Z,18.10
2018-09-19T23:31:10.761Z,18.10
2018-09-19T23:33:45.505Z,18.00
2018-09-19T23:36:19.505Z,18.00
2018-09-19T23:38:54.352Z,17.90
2018-09-19T23:41:29.108Z,17.90
2018-09-19T23:44:02.991Z,17.90
2018-09-19T23:46:38.141Z,17.90
2018-09-19T23:49:12.883Z,17.90
2018-09-19T23:51:47.358Z,17.90
2018-09-19T23:54:21.459Z,17.90
2018-09-19T23:56:55.448Z,17.90
2018-09-19T23:59:29.451Z,17.90
